Time;durP1;ratioP1;P1;durP2;ratioP2;P2;SDS_P1;SDS_P2;PMS_P1;PMS_P2;Temp;Humidity;BMP_temperature;BMP_pressure;BME280_temperature;BME280_humidity;BME280_pressure;Samples;Min_cycle;Max_cycle;Signal;HPM_P1;HPM_P2
2022/02/26 00:00:01;;;;;;;4.03;2.83;;;2.20;99.90;;;;;;5072786;28;20224;-90
2022/02/26 00:02:29;;;;;;;2.63;2.10;;;2.30;99.90;;;;;;5073424;28;20200;-91
2022/02/26 00:04:56;;;;;;;7.25;2.78;;;2.30;99.90;;;;;;5073156;28;20656;-91
2022/02/26 00:07:23;;;;;;;4.45;2.63;;;2.30;99.90;;;;;;5072884;28;20203;-91
2022/02/26 00:09:51;;;;;;;4.45;2.72;;;2.30;99.90;;;;;;5072995;28;20240;-92
2022/02/26 00:12:18;;;;;;;8.75;2.53;;;2.20;99.90;;;;;;5073193;28;20216;-91
2022/02/26 00:14:45;;;;;;;4.53;2.60;;;2.20;99.90;;;;;;5072900;28;20659;-92
2022/02/26 00:17:12;;;;;;;8.27;3.03;;;2.20;99.90;;;;;;5072934;28;20696;-91
2022/02/26 00:19:43;;;;;;;5.72;2.88;;;2.20;99.90;;;;;;5073046;28;20215;-92
2022/02/26 00:22:10;;;;;;;7.05;2.85;;;2.20;99.90;;;;;;5076209;28;20257;-95
2022/02/26 00:24:37;;;;;;;6.07;3.78;;;2.10;99.90;;;;;;5094396;28;20256;-95
2022/02/26 00:27:04;;;;;;;5.18;2.90;;;2.10;99.90;;;;;;5091791;28;20233;-94
2022/02/26 00:29:34;;;;;;;5.22;3.00;;;2.10;99.90;;;;;;5091621;28;20264;-95
2022/02/26 00:32:01;;;;;;;4.18;2.65;;;2.20;99.90;;;;;;5085516;28;20211;-94
2022/02/26 00:34:28;;;;;;;9.07;3.22;;;2.20;99.90;;;;;;5085185;28;20208;-95
2022/02/26 00:36:57;;;;;;;5.03;2.95;;;2.20;99.90;;;;;;5066329;28;20216;-92
2022/02/26 00:39:24;;;;;;;4.35;3.17;;;2.30;99.90;;;;;;5070002;28;20205;-91
2022/02/26 00:41:51;;;;;;;5.07;2.80;;;2.30;99.90;;;;;;5073220;28;20206;-91
2022/02/26 00:44:24;;;;;;;7.30;2.95;;;2.40;99.90;;;;;;5074251;28;20196;-93
2022/02/26 00:46:50;;;;;;;5.53;2.60;;;2.40;99.90;;;;;;5074236;28;20249;-93
2022/02/26 00:52:05;;;;;;;7.40;3.20;;;2.40;99.90;;;;;;5073781;28;20187;-92
2022/02/26 00:54:32;;;;;;;5.63;3.10;;;2.50;99.90;;;;;;5074425;28;20200;-92
2022/02/26 00:56:59;;;;;;;7.15;3.25;;;2.50;99.90;;;;;;5084470;28;20200;-94
2022/02/26 00:59:26;;;;;;;3.38;2.85;;;2.60;99.90;;;;;;5097349;28;20208;-94
2022/02/26 01:01:53;;;;;;;5.68;3.00;;;2.60;99.90;;;;;;5097717;28;20176;-94
2022/02/26 01:04:20;;;;;;;6.28;3.65;;;2.60;99.90;;;;;;5097179;28;20215;-96
2022/02/26 01:06:47;;;;;;;4.50;3.75;;;2.60;99.90;;;;;;5096570;28;20203;-94
2022/02/26 01:09:15;;;;;;;6.18;4.30;;;2.70;99.90;;;;;;5096965;28;20181;-92
2022/02/26 01:11:42;;;;;;;6.75;3.63;;;2.70;99.90;;;;;;5097139;28;20279;-94
2022/02/26 01:14:09;;;;;;;5.75;2.70;;;2.70;99.90;;;;;;5097028;28;20187;-93
2022/02/26 01:16:36;;;;;;;4.78;3.05;;;2.70;99.90;;;;;;5098490;22;20605;-76
2022/02/26 01:19:04;;;;;;;5.85;3.10;;;2.70;99.90;;;;;;5065960;28;20204;-75
2022/02/26 01:21:31;;;;;;;5.47;2.80;;;2.80;99.90;;;;;;5052729;28;20209;-76
2022/02/26 01:23:57;;;;;;;4.45;2.85;;;2.80;99.90;;;;;;5052460;28;20610;-76
2022/02/26 01:26:26;;;;;;;3.85;2.92;;;2.70;99.90;;;;;;5051572;28;20213;-75
2022/02/26 01:28:53;;;;;;;6.38;3.20;;;2.80;99.90;;;;;;5051263;28;20209;-76
2022/02/26 01:31:20;;;;;;;6.07;3.45;;;2.80;99.90;;;;;;5052638;28;20212;-76
2022/02/26 01:33:47;;;;;;;7.10;3.35;;;2.80;99.90;;;;;;5051690;28;20593;-76
2022/02/26 01:36:14;;;;;;;5.43;2.88;;;2.80;99.90;;;;;;5049896;28;20225;-75
2022/02/26 01:38:41;;;;;;;6.88;3.22;;;2.80;99.90;;;;;;5049424;28;20298;-76
2022/02/26 01:41:08;;;;;;;7.30;3.45;;;2.80;99.90;;;;;;5052197;28;20197;-76
2022/02/26 01:43:36;;;;;;;4.30;3.30;;;2.80;99.90;;;;;;5051713;28;20225;-75
2022/02/26 01:46:06;;;;;;;7.20;2.88;;;2.70;99.90;;;;;;5051672;28;20204;-76
2022/02/26 01:48:32;;;;;;;6.10;3.25;;;2.80;99.90;;;;;;5051351;28;20232;-75
2022/02/26 01:50:59;;;;;;;6.88;3.35;;;2.80;99.90;;;;;;5053902;28;20206;-76
2022/02/26 01:53:26;;;;;;;2.88;2.58;;;2.80;99.90;;;;;;5055712;28;20236;-76
2022/02/26 01:55:53;;;;;;;8.00;3.50;;;2.80;99.90;;;;;;5055129;28;20232;-76
2022/02/26 01:58:20;;;;;;;10.30;2.90;;;2.80;99.90;;;;;;5054154;28;20201;-75
2022/02/26 02:00:48;;;;;;;7.18;4.00;;;2.80;99.90;;;;;;5053715;28;20230;-75
2022/02/26 02:03:15;;;;;;;7.18;3.25;;;2.80;99.90;;;;;;5053585;28;20239;-75
2022/02/26 02:05:43;;;;;;;4.72;3.30;;;2.70;99.90;;;;;;5053529;28;20216;-75
2022/02/26 02:08:11;;;;;;;8.25;3.38;;;2.70;99.90;;;;;;5053218;28;20205;-76
2022/02/26 02:10:40;;;;;;;5.72;3.63;;;2.70;99.90;;;;;;5053479;28;20652;-76
2022/02/26 02:13:07;;;;;;;4.65;2.83;;;2.70;99.90;;;;;;5054307;28;21551;-75
2022/02/26 02:15:35;;;;;;;4.38;2.60;;;2.70;99.90;;;;;;5053615;28;20353;-75
2022/02/26 02:18:05;;;;;;;8.52;3.85;;;2.70;99.90;;;;;;5033079;28;20241;-76
2022/02/26 02:20:32;;;;;;;5.47;4.00;;;2.70;99.90;;;;;;5033785;28;20212;-76
2022/02/26 02:23:00;;;;;;;11.40;3.83;;;2.60;99.90;;;;;;5033124;28;20202;-75
2022/02/26 02:25:30;;;;;;;5.22;3.35;;;2.60;99.90;;;;;;5033759;28;20609;-75
2022/02/26 02:27:57;;;;;;;4.75;3.35;;;2.60;99.90;;;;;;5032467;28;20197;-75
2022/02/26 02:30:26;;;;;;;6.30;3.55;;;2.50;99.90;;;;;;5035272;28;20205;-76
2022/02/26 02:32:54;;;;;;;4.28;3.10;;;2.50;99.90;;;;;;5035670;28;20657;-76
2022/02/26 02:35:26;;;;;;;7.78;3.58;;;2.60;99.90;;;;;;5035731;28;20206;-76
2022/02/26 02:37:54;;;;;;;6.40;3.20;;;2.60;99.90;;;;;;5034640;28;20232;-76
2022/02/26 02:40:22;;;;;;;4.15;3.22;;;2.60;99.90;;;;;;5034669;28;20198;-75
2022/02/26 02:42:49;;;;;;;7.82;3.65;;;2.60;99.90;;;;;;5032733;28;20696;-75
2022/02/26 02:45:16;;;;;;;4.38;3.20;;;2.60;99.90;;;;;;5033723;28;20202;-75
2022/02/26 02:47:43;;;;;;;4.50;3.20;;;2.60;99.90;;;;;;5033435;28;20209;-74
2022/02/26 02:50:10;;;;;;;6.80;3.70;;;2.60;99.90;;;;;;5033688;28;20205;-75
2022/02/26 02:52:37;;;;;;;6.07;3.60;;;2.60;99.90;;;;;;5033523;28;20285;-74
2022/02/26 02:55:04;;;;;;;7.25;4.00;;;2.60;99.90;;;;;;5032805;28;20221;-74
2022/02/26 02:57:33;;;;;;;8.07;3.90;;;2.60;99.90;;;;;;5032377;28;20234;-75
2022/02/26 03:00:01;;;;;;;7.00;4.25;;;2.50;99.90;;;;;;5032586;28;20210;-74
2022/02/26 03:02:27;;;;;;;6.38;4.22;;;2.50;99.90;;;;;;5031614;28;20202;-74
2022/02/26 03:04:54;;;;;;;7.00;4.40;;;2.60;99.90;;;;;;5032289;28;20222;-74
2022/02/26 03:07:21;;;;;;;10.55;3.72;;;2.50;99.90;;;;;;5032278;28;20676;-75
2022/02/26 03:09:47;;;;;;;10.20;4.25;;;2.50;99.90;;;;;;5032905;28;20194;-74
2022/02/26 03:12:14;;;;;;;7.70;4.70;;;2.40;99.90;;;;;;5033287;28;20224;-75
2022/02/26 03:14:42;;;;;;;10.35;5.03;;;2.40;99.90;;;;;;5032986;28;20225;-74
2022/02/26 03:17:10;;;;;;;9.80;5.63;;;2.40;99.90;;;;;;5057358;28;20220;-75
2022/02/26 03:19:37;;;;;;;6.20;4.22;;;2.40;99.90;;;;;;5072460;28;20222;-75
2022/02/26 03:22:05;;;;;;;6.43;4.25;;;2.40;99.90;;;;;;5072115;28;20200;-75
2022/02/26 03:24:32;;;;;;;6.50;4.22;;;2.40;99.90;;;;;;5072313;28;20224;-74
2022/02/26 03:26:58;;;;;;;6.97;4.70;;;2.40;99.90;;;;;;5071548;28;20204;-75
2022/02/26 03:29:28;;;;;;;7.13;4.53;;;2.40;99.90;;;;;;5072274;28;20291;-75
2022/02/26 03:31:56;;;;;;;6.05;4.50;;;2.40;99.90;;;;;;5072225;28;20270;-75
2022/02/26 03:34:23;;;;;;;6.80;4.53;;;2.40;99.90;;;;;;5071989;28;20227;-75
2022/02/26 03:36:53;;;;;;;6.63;4.35;;;2.40;99.90;;;;;;5071365;28;20238;-75
2022/02/26 03:39:20;;;;;;;4.68;4.28;;;2.40;99.90;;;;;;5072081;28;20736;-75
2022/02/26 03:41:47;;;;;;;8.80;4.90;;;2.40;99.90;;;;;;5071776;28;20207;-74
2022/02/26 03:44:14;;;;;;;5.80;4.30;;;2.40;99.90;;;;;;5072008;28;20282;-75
2022/02/26 03:46:41;;;;;;;8.15;5.50;;;2.40;99.90;;;;;;5071075;28;20207;-74
2022/02/26 03:49:09;;;;;;;8.10;6.30;;;2.40;99.90;;;;;;5071683;28;20207;-74
2022/02/26 03:51:37;;;;;;;8.05;4.70;;;2.40;99.90;;;;;;5071813;28;20250;-74
2022/02/26 03:54:04;;;;;;;7.13;4.57;;;2.40;99.90;;;;;;5071502;28;20232;-74
2022/02/26 03:56:30;;;;;;;9.43;4.32;;;2.30;99.90;;;;;;5071657;28;20200;-74
2022/02/26 03:58:57;;;;;;;9.63;5.30;;;2.30;99.90;;;;;;5071065;28;20639;-74
2022/02/26 04:01:24;;;;;;;7.97;5.30;;;2.20;99.90;;;;;;5071611;28;20208;-74
2022/02/26 04:03:51;;;;;;;6.90;5.00;;;2.20;99.90;;;;;;5071141;28;20224;-74
2022/02/26 04:06:19;;;;;;;8.45;5.72;;;2.20;99.90;;;;;;5071669;28;20196;-74
2022/02/26 04:08:46;;;;;;;13.05;6.20;;;2.10;99.90;;;;;;5070788;28;20197;-74
2022/02/26 04:11:13;;;;;;;13.27;5.57;;;2.10;99.90;;;;;;5105925;22;20238;-88
2022/02/26 04:13:40;;;;;;;13.55;6.47;;;2.00;99.90;;;;;;5110050;28;20200;-89
2022/02/26 04:16:07;;;;;;;10.48;5.35;;;2.00;99.90;;;;;;5093890;28;20200;-89
2022/02/26 04:18:33;;;;;;;9.60;5.60;;;1.90;99.90;;;;;;5094671;28;20258;-89
2022/02/26 04:21:00;;;;;;;7.28;5.35;;;1.90;99.90;;;;;;5089184;28;20217;-90
2022/02/26 04:23:28;;;;;;;8.27;5.50;;;1.90;99.90;;;;;;5073696;28;20224;-90
2022/02/26 04:25:55;;;;;;;8.15;4.97;;;1.90;99.90;;;;;;5073775;28;20200;-89
2022/02/26 04:28:22;;;;;;;7.32;4.65;;;1.90;99.90;;;;;;5073526;28;20204;-89
2022/02/26 04:30:51;;;;;;;8.23;5.45;;;1.80;99.90;;;;;;5073526;28;20220;-89
2022/02/26 04:33:18;;;;;;;11.40;5.80;;;1.90;99.90;;;;;;5073655;28;20211;-88
2022/02/26 04:35:45;;;;;;;9.57;6.38;;;1.80;99.90;;;;;;5074166;28;20200;-89
2022/02/26 04:38:12;;;;;;;12.73;5.57;;;1.80;99.90;;;;;;5073805;28;20734;-88
2022/02/26 04:40:40;;;;;;;9.93;5.15;;;1.70;99.90;;;;;;5074064;28;20204;-88
2022/02/26 04:43:06;;;;;;;11.45;5.68;;;1.70;99.90;;;;;;5073865;28;20211;-89
2022/02/26 04:45:33;;;;;;;9.05;5.78;;;1.70;99.90;;;;;;5073330;28;20200;-90
2022/02/26 04:48:01;;;;;;;13.07;6.78;;;1.70;99.90;;;;;;5073181;28;20270;-90
2022/02/26 04:50:27;;;;;;;9.02;5.65;;;1.70;99.90;;;;;;5073089;28;20200;-91
2022/02/26 04:52:54;;;;;;;7.03;5.65;;;1.70;99.90;;;;;;5073115;28;20679;-90
2022/02/26 04:55:21;;;;;;;8.75;5.75;;;1.70;99.90;;;;;;5073010;28;20201;-90
2022/02/26 04:57:49;;;;;;;9.25;5.32;;;1.70;99.90;;;;;;5073002;28;20224;-91
2022/02/26 05:00:16;;;;;;;10.77;7.35;;;1.70;99.90;;;;;;5072718;28;20193;-90
2022/02/26 05:02:43;;;;;;;8.98;6.75;;;1.70;99.90;;;;;;5073786;28;20224;-90
2022/02/26 05:05:10;;;;;;;12.55;6.13;;;1.60;99.90;;;;;;5074765;28;20219;-91
2022/02/26 05:07:39;;;;;;;7.68;5.93;;;1.70;99.90;;;;;;5077201;28;20207;-90
2022/02/26 05:10:06;;;;;;;11.18;6.07;;;1.60;99.90;;;;;;5073412;28;20215;-90
2022/02/26 05:12:33;;;;;;;9.18;5.78;;;1.60;99.90;;;;;;5072835;28;20216;-90
2022/02/26 05:15:02;;;;;;;14.05;5.90;;;1.60;99.90;;;;;;5072827;28;20207;-90
2022/02/26 05:17:29;;;;;;;8.27;5.50;;;1.60;99.90;;;;;;5073011;28;20572;-90
2022/02/26 05:19:55;;;;;;;12.18;6.57;;;1.50;99.90;;;;;;5072587;28;20215;-90
2022/02/26 05:22:22;;;;;;;11.90;5.70;;;1.50;99.90;;;;;;5072481;28;20232;-91
2022/02/26 05:24:49;;;;;;;14.02;6.00;;;1.60;99.90;;;;;;5074192;28;20203;-90
2022/02/26 05:27:16;;;;;;;11.40;5.50;;;1.60;99.90;;;;;;5076826;28;20203;-88
2022/02/26 05:29:42;;;;;;;10.95;5.80;;;1.70;99.90;;;;;;5076924;28;20683;-90
2022/02/26 05:32:11;;;;;;;10.20;5.78;;;1.70;99.90;;;;;;5076580;28;20223;-90
2022/02/26 05:34:37;;;;;;;8.77;5.63;;;1.70;99.90;;;;;;5077215;28;20215;-90
2022/02/26 05:37:05;;;;;;;11.40;6.15;;;1.70;99.90;;;;;;5076565;28;20208;-90
2022/02/26 05:39:31;;;;;;;10.43;5.90;;;1.70;99.90;;;;;;5077034;28;20204;-91
2022/02/26 05:41:58;;;;;;;8.98;5.43;;;1.70;99.90;;;;;;5076470;28;20247;-90
2022/02/26 05:44:25;;;;;;;11.27;5.55;;;1.70;99.90;;;;;;5093577;28;20204;-91
2022/02/26 05:46:52;;;;;;;6.88;5.47;;;1.70;99.90;;;;;;5089267;28;20204;-90
2022/02/26 05:49:20;;;;;;;7.88;5.55;;;1.70;99.90;;;;;;5079003;28;20211;-90
2022/02/26 05:51:47;;;;;;;11.63;5.95;;;1.70;99.90;;;;;;5078442;28;20693;-90
2022/02/26 05:54:14;;;;;;;12.52;5.82;;;1.60;99.90;;;;;;5078271;28;20227;-91
2022/02/26 05:56:41;;;;;;;9.15;5.25;;;1.60;99.90;;;;;;5077304;28;20193;-91
2022/02/26 05:59:08;;;;;;;6.35;5.75;;;1.60;99.90;;;;;;5076539;28;20220;-90
2022/02/26 06:01:35;;;;;;;9.73;6.00;;;1.60;99.90;;;;;;5076856;28;20653;-90
2022/02/26 06:04:02;;;;;;;12.07;6.00;;;1.60;99.90;;;;;;5077479;28;20250;-90
2022/02/26 06:06:30;;;;;;;11.13;6.05;;;1.70;99.90;;;;;;5076777;28;20602;-90
2022/02/26 06:08:57;;;;;;;9.68;5.05;;;1.70;99.90;;;;;;5077704;28;20200;-90
2022/02/26 06:11:24;;;;;;;7.05;5.00;;;1.70;99.90;;;;;;5076950;28;20607;-90
2022/02/26 06:13:59;;;;;;;11.27;5.55;;;1.70;99.90;;;;;;5077589;28;20254;-90
2022/02/26 06:16:26;;;;;;;7.97;4.60;;;1.80;99.90;;;;;;5091488;28;20204;-91
2022/02/26 06:18:53;;;;;;;6.22;4.72;;;1.80;99.90;;;;;;5093512;28;20267;-90
2022/02/26 06:21:19;;;;;;;8.95;5.68;;;1.80;99.90;;;;;;5094077;28;20220;-90
2022/02/26 06:23:48;;;;;;;9.50;5.95;;;1.80;99.90;;;;;;5084771;28;20219;-89
2022/02/26 06:26:14;;;;;;;5.93;5.32;;;1.90;99.90;;;;;;5076052;28;20223;-90
2022/02/26 06:28:41;;;;;;;11.07;5.80;;;1.90;99.90;;;;;;5075703;28;20193;-89
2022/02/26 06:31:08;;;;;;;9.35;5.57;;;1.90;99.90;;;;;;5081701;28;20696;-90
2022/02/26 06:33:34;;;;;;;11.90;6.25;;;1.90;99.90;;;;;;5075770;28;20205;-91
2022/02/26 06:36:01;;;;;;;6.90;5.88;;;1.90;99.90;;;;;;5076243;28;20185;-92
2022/02/26 06:38:28;;;;;;;9.27;5.68;;;2.00;99.90;;;;;;5075816;28;20227;-90
2022/02/26 06:40:56;;;;;;;12.23;5.47;;;2.00;99.90;;;;;;5075897;28;20640;-89
2022/02/26 06:43:23;;;;;;;9.90;5.63;;;2.10;99.90;;;;;;5076138;28;20208;-91
2022/02/26 06:45:50;;;;;;;8.52;5.97;;;2.00;99.90;;;;;;5075825;28;20207;-91
2022/02/26 06:48:17;;;;;;;13.57;6.40;;;2.10;99.90;;;;;;5075840;28;20939;-92
2022/02/26 06:50:44;;;;;;;13.15;5.80;;;2.10;99.90;;;;;;5077713;28;20224;-92
2022/02/26 06:53:11;;;;;;;8.75;6.47;;;2.20;99.90;;;;;;5079004;28;20268;-92
2022/02/26 06:55:37;;;;;;;21.23;9.27;;;2.30;99.90;;;;;;5078665;28;20567;-93
2022/02/26 06:58:06;;;;;;;15.05;10.32;;;2.30;99.90;;;;;;5079742;28;20213;-91
2022/02/26 07:00:33;;;;;;;18.50;9.98;;;2.40;99.90;;;;;;5078612;28;20208;-92
2022/02/26 07:03:00;;;;;;;18.67;8.18;;;2.40;99.90;;;;;;5084156;28;20287;-92
2022/02/26 07:05:27;;;;;;;17.15;9.98;;;2.50;99.90;;;;;;5082179;28;20207;-92
2022/02/26 07:07:54;;;;;;;13.65;8.57;;;2.50;99.90;;;;;;5090654;28;20226;-92
2022/02/26 07:10:20;;;;;;;13.50;7.20;;;2.60;99.90;;;;;;5087643;28;20208;-92
2022/02/26 07:12:47;;;;;;;12.35;6.05;;;2.60;99.90;;;;;;5082274;28;20740;-94
2022/02/26 07:15:16;;;;;;;10.40;5.63;;;2.60;99.90;;;;;;5078682;28;20754;-92
2022/02/26 07:17:43;;;;;;;8.13;6.22;;;2.70;99.90;;;;;;5093438;28;20215;-92
2022/02/26 07:20:11;;;;;;;9.57;5.47;;;2.80;99.90;;;;;;5095666;28;20282;-92
2022/02/26 07:22:37;;;;;;;12.63;6.53;;;2.80;99.90;;;;;;5098710;28;20226;-92
2022/02/26 07:25:05;;;;;;;12.32;7.43;;;2.80;99.90;;;;;;5102077;28;20726;-93
2022/02/26 07:27:32;;;;;;;13.57;6.00;;;2.80;99.90;;;;;;5103984;28;20267;-93
2022/02/26 07:29:59;;;;;;;8.50;6.38;;;2.90;99.90;;;;;;5103641;28;20289;-94
2022/02/26 07:32:27;;;;;;;10.07;5.70;;;3.00;99.90;;;;;;5101244;28;20695;-93
2022/02/26 07:34:54;;;;;;;9.10;6.22;;;2.90;99.90;;;;;;5103478;28;20210;-93
2022/02/26 07:37:23;;;;;;;11.98;6.40;;;3.00;99.90;;;;;;5102489;28;20200;-93
2022/02/26 07:39:50;;;;;;;6.90;5.93;;;3.00;99.90;;;;;;5106122;28;20684;-92
2022/02/26 07:42:17;;;;;;;10.80;5.82;;;3.10;99.90;;;;;;5111708;28;20237;-93
2022/02/26 07:44:45;;;;;;;10.10;6.45;;;3.10;99.90;;;;;;5115949;28;20260;-94
2022/02/26 07:47:12;;;;;;;13.57;6.50;;;3.20;99.90;;;;;;5116091;28;20284;-93
2022/02/26 07:49:40;;;;;;;15.05;6.00;;;3.20;99.90;;;;;;5118082;28;20198;-92
2022/02/26 07:52:07;;;;;;;9.65;5.97;;;3.30;99.90;;;;;;5116782;28;20200;-93
2022/02/26 07:54:34;;;;;;;16.77;6.20;;;3.30;99.90;;;;;;5118658;28;20267;-94
2022/02/26 07:57:01;;;;;;;11.30;5.80;;;3.30;99.90;;;;;;5117222;28;20200;-92
2022/02/26 07:59:28;;;;;;;13.13;6.53;;;3.30;99.90;;;;;;5112013;28;20219;-93
2022/02/26 08:01:56;;;;;;;13.38;5.65;;;3.30;99.90;;;;;;5099471;28;20220;-93
2022/02/26 08:04:23;;;;;;;13.90;7.97;;;3.40;99.90;;;;;;5100069;28;20218;-94
2022/02/26 08:06:51;;;;;;;10.60;6.10;;;3.60;99.90;;;;;;5101906;28;20212;-91
2022/02/26 08:09:18;;;;;;;11.32;7.25;;;3.60;99.90;;;;;;5099867;28;20204;-92
2022/02/26 08:11:45;;;;;;;9.13;5.20;;;3.70;99.90;;;;;;5100353;28;20243;-92
2022/02/26 08:14:12;;;;;;;12.18;5.95;;;3.80;99.90;;;;;;5104091;28;20211;-94
2022/02/26 08:16:39;;;;;;;7.40;5.10;;;3.90;99.90;;;;;;5101457;28;20302;-94
2022/02/26 08:19:05;;;;;;;31.90;12.38;;;4.00;99.90;;;;;;5104669;28;20257;-94
2022/02/26 08:21:34;;;;;;;21.60;9.95;;;4.00;99.90;;;;;;5104363;28;20223;-93
2022/02/26 08:24:03;;;;;;;10.05;6.53;;;4.00;99.90;;;;;;5112156;28;20184;-93
2022/02/26 08:26:30;;;;;;;9.65;5.75;;;4.10;99.90;;;;;;5112215;28;20191;-93
2022/02/26 08:28:57;;;;;;;10.20;6.68;;;4.10;99.90;;;;;;5108236;28;20206;-93
2022/02/26 08:31:24;;;;;;;13.43;5.50;;;4.10;99.90;;;;;;5111407;28;20250;-93
2022/02/26 08:33:51;;;;;;;10.82;5.47;;;4.30;99.90;;;;;;5109949;28;20259;-94
2022/02/26 08:36:18;;;;;;;9.85;5.03;;;4.30;99.90;;;;;;5111572;28;20190;-93
2022/02/26 08:38:45;;;;;;;5.55;4.00;;;4.30;99.90;;;;;;5112079;28;20250;-94
2022/02/26 08:41:14;;;;;;;7.72;5.75;;;4.40;99.90;;;;;;5111939;28;20206;-94
2022/02/26 08:43:41;;;;;;;8.38;4.90;;;4.40;99.90;;;;;;5114286;28;20211;-93
2022/02/26 08:46:08;;;;;;;10.85;5.43;;;4.50;99.90;;;;;;5113202;28;20208;-93
2022/02/26 08:48:34;;;;;;;11.63;5.53;;;4.60;99.90;;;;;;5114101;28;20200;-93
2022/02/26 08:51:01;;;;;;;6.55;5.22;;;4.70;99.90;;;;;;5125753;22;20241;-71
2022/02/26 08:53:28;;;;;;;7.60;4.40;;;4.80;99.90;;;;;;5107412;27;20219;-73
2022/02/26 08:55:54;;;;;;;10.85;5.57;;;5.10;99.90;;;;;;5091855;28;20203;-73
2022/02/26 08:58:22;;;;;;;6.07;4.88;;;5.40;99.90;;;;;;5090148;28;20571;-72
2022/02/26 09:00:50;;;;;;;6.95;5.28;;;5.80;99.90;;;;;;5091015;28;20204;-71
2022/02/26 09:03:17;;;;;;;5.97;4.72;;;6.30;99.90;;;;;;5090535;28;20315;-72
2022/02/26 09:05:44;;;;;;;10.95;4.90;;;6.90;99.90;;;;;;5091818;28;20207;-72
2022/02/26 09:08:11;;;;;;;10.25;5.80;;;7.40;99.90;;;;;;5090600;28;20250;-71
2022/02/26 09:10:38;;;;;;;8.00;4.72;;;7.90;99.90;;;;;;5090528;28;20210;-72
2022/02/26 09:13:05;;;;;;;9.48;5.03;;;8.20;99.90;;;;;;5090158;28;20294;-72
2022/02/26 09:15:33;;;;;;;8.77;4.35;;;8.10;99.90;;;;;;5090576;28;20553;-71
2022/02/26 09:18:01;;;;;;;8.93;4.68;;;8.20;99.60;;;;;;5095478;28;20564;-73
2022/02/26 09:20:28;;;;;;;6.50;4.90;;;8.00;99.90;;;;;;5100824;28;20195;-72
2022/02/26 09:22:54;;;;;;;8.90;4.78;;;7.70;99.50;;;;;;5107911;28;20200;-73
2022/02/26 09:25:21;;;;;;;7.22;4.60;;;7.50;99.90;;;;;;5111009;28;20203;-73
2022/02/26 09:27:49;;;;;;;7.20;4.85;;;7.40;99.60;;;;;;5110128;28;20207;-73
2022/02/26 09:30:16;;;;;;;6.85;4.10;;;7.30;99.90;;;;;;5111015;28;20654;-73
2022/02/26 09:32:47;;;;;;;4.47;3.40;;;7.20;98.90;;;;;;5108963;28;20686;-73
2022/02/26 09:35:14;;;;;;;7.10;3.90;;;6.90;97.90;;;;;;5103115;28;20237;-71
2022/02/26 09:37:40;;;;;;;7.20;4.00;;;6.90;99.00;;;;;;5090340;28;20678;-70
2022/02/26 09:40:08;;;;;;;6.70;3.58;;;6.90;99.20;;;;;;5090394;28;20227;-73
2022/02/26 09:42:36;;;;;;;7.22;4.47;;;6.70;99.30;;;;;;5090828;28;20208;-72
2022/02/26 09:45:03;;;;;;;6.88;3.70;;;6.60;98.20;;;;;;5090171;28;20222;-71
2022/02/26 09:47:31;;;;;;;9.48;5.97;;;6.50;97.10;;;;;;5093878;28;20204;-72
2022/02/26 09:49:59;;;;;;;7.43;3.90;;;6.20;97.50;;;;;;5089888;28;20196;-73
2022/02/26 09:52:29;;;;;;;8.40;4.03;;;6.00;98.10;;;;;;5089059;28;20238;-71
2022/02/26 09:54:56;;;;;;;5.80;3.22;;;6.00;97.40;;;;;;5089032;28;20281;-71
2022/02/26 09:57:26;;;;;;;5.75;4.25;;;5.90;97.00;;;;;;5089132;28;20735;-71
2022/02/26 09:59:53;;;;;;;8.43;2.95;;;5.90;96.90;;;;;;5089402;28;20259;-71
2022/02/26 10:02:30;;;;;;;8.35;2.50;;;6.10;96.40;;;;;;5090026;28;20430;-71
2022/02/26 10:05:00;;;;;;;3.55;2.72;;;6.30;95.70;;;;;;5090159;28;20309;-73
2022/02/26 10:07:27;;;;;;;5.18;2.60;;;6.30;96.00;;;;;;5090254;28;20292;-72
2022/02/26 10:09:56;;;;;;;4.47;2.67;;;6.40;96.30;;;;;;5089046;28;20200;-72
2022/02/26 10:12:25;;;;;;;8.05;2.67;;;6.30;95.80;;;;;;5092731;28;20340;-71
2022/02/26 10:14:55;;;;;;;6.22;2.60;;;6.20;95.20;;;;;;5092287;28;20219;-72
2022/02/26 10:17:27;;;;;;;3.42;2.83;;;6.00;95.50;;;;;;5092905;28;20257;-71
2022/02/26 10:20:12;;;;;;;5.75;2.95;;;5.80;96.10;;;;;;5093127;28;20223;-72
2022/02/26 10:22:41;;;;;;;5.03;2.63;;;5.40;95.70;;;;;;5092621;28;20231;-71
2022/02/26 10:25:11;;;;;;;6.13;2.60;;;5.30;96.20;;;;;;5093403;28;20219;-72
2022/02/26 10:27:43;;;;;;;6.90;2.65;;;5.20;96.40;;;;;;5093443;28;20203;-72
2022/02/26 10:30:14;;;;;;;5.25;2.53;;;5.10;96.50;;;;;;5093894;28;20196;-72
2022/02/26 10:32:42;;;;;;;6.43;3.40;;;5.10;96.70;;;;;;5092533;28;20241;-72
2022/02/26 10:35:12;;;;;;;5.22;2.80;;;5.20;96.40;;;;;;5093521;28;20255;-72
2022/02/26 10:37:39;;;;;;;5.72;2.50;;;5.40;96.80;;;;;;5092538;28;20208;-72
2022/02/26 10:40:07;;;;;;;7.32;2.90;;;5.70;96.80;;;;;;5093145;28;20219;-72
2022/02/26 10:42:36;;;;;;;5.13;2.03;;;5.90;95.10;;;;;;5092290;28;20204;-72
2022/02/26 10:45:06;;;;;;;2.08;1.38;;;6.20;95.10;;;;;;5092072;28;20250;-72
2022/02/26 10:47:36;;;;;;;3.92;2.03;;;6.70;94.80;;;;;;5092010;28;20211;-72
2022/02/26 10:50:16;;;;;;;5.55;2.30;;;6.90;93.20;;;;;;5092597;28;20744;-72
2022/02/26 10:52:55;;;;;;;2.35;2.00;;;7.70;92.30;;;;;;5091500;28;20584;-71
2022/02/26 10:55:22;;;;;;;5.47;2.40;;;10.20;90.30;;;;;;5091884;28;20199;-72
2022/02/26 10:57:56;;;;;;;5.15;1.92;;;12.90;85.30;;;;;;5091591;28;20570;-71
2022/02/26 11:00:25;;;;;;;8.00;2.60;;;15.10;79.30;;;;;;5092416;28;20224;-73
2022/02/26 11:03:08;;;;;;;4.68;2.38;;;15.80;75.20;;;;;;5092711;28;20215;-71
2022/02/26 11:05:37;;;;;;;3.70;2.38;;;14.40;75.10;;;;;;5092659;28;20211;-71
2022/02/26 11:08:05;;;;;;;3.92;2.40;;;13.80;75.20;;;;;;5091183;28;20678;-71
2022/02/26 11:10:33;;;;;;;4.73;2.63;;;14.40;74.60;;;;;;5092049;28;20202;-73
2022/02/26 11:13:00;;;;;;;3.87;2.40;;;15.70;75.40;;;;;;5092049;28;20843;-73
2022/02/26 11:15:29;;;;;;;5.30;3.40;;;17.10;74.30;;;;;;5091520;28;20515;-71
2022/02/26 11:17:57;;;;;;;4.77;2.70;;;17.80;70.30;;;;;;5091288;28;20461;-73
2022/02/26 11:20:26;;;;;;;4.87;2.47;;;17.30;69.40;;;;;;5091507;28;20509;-72
2022/02/26 11:22:57;;;;;;;3.87;2.50;;;15.90;71.80;;;;;;5090002;28;20489;-74
2022/02/26 11:25:25;;;;;;;5.60;2.47;;;16.00;73.50;;;;;;5091074;28;20944;-73
2022/02/26 11:27:52;;;;;;;6.73;2.87;;;15.50;73.20;;;;;;5091587;28;20871;-73
2022/02/26 11:30:24;;;;;;;4.90;2.30;;;15.70;72.70;;;;;;5092730;28;20972;-72
2022/02/26 11:32:51;;;;;;;3.60;1.87;;;17.60;70.30;;;;;;5092162;28;21148;-73
2022/02/26 11:35:20;;;;;;;4.37;2.23;;;18.60;67.70;;;;;;5091823;28;20484;-73
2022/02/26 11:37:49;;;;;;;4.93;2.27;;;19.00;66.80;;;;;;5090626;28;20457;-73
2022/02/26 11:40:19;;;;;;;4.30;2.60;;;19.60;66.90;;;;;;5092412;28;21023;-73
2022/02/26 11:42:46;;;;;;;6.50;2.57;;;20.40;62.50;;;;;;5091024;28;20457;-73
2022/02/26 11:45:18;;;;;;;4.77;2.47;;;19.90;64.00;;;;;;5090654;28;20509;-74
2022/02/26 11:47:52;;;;;;;6.20;3.03;;;19.20;64.10;;;;;;5094744;28;20827;-73
2022/02/26 11:50:24;;;;;;;4.47;2.13;;;19.50;63.70;;;;;;5099826;28;20460;-73
2022/02/26 11:52:53;;;;;;;4.40;2.07;;;19.20;64.50;;;;;;5099691;28;20536;-74
2022/02/26 11:55:38;;;;;;;6.17;2.43;;;18.90;66.60;;;;;;5109063;28;20452;-73
2022/02/26 11:58:11;;;;;;;7.70;2.63;;;19.40;65.60;;;;;;5108803;28;20464;-73
2022/02/26 12:00:43;;;;;;;6.33;2.80;;;19.70;66.40;;;;;;5111520;28;20489;-73
2022/02/26 12:03:32;;;;;;;11.10;2.93;;;18.90;66.50;;;;;;5113920;28;20480;-73
2022/02/26 12:06:33;;;;;;;5.33;2.80;;;18.90;66.00;;;;;;5096146;28;20489;-72
2022/02/26 12:09:05;;;;;;;7.63;3.20;;;18.40;66.40;;;;;;5107620;28;20464;-73
2022/02/26 12:11:38;;;;;;;4.67;2.70;;;18.20;65.70;;;;;;5110839;28;20461;-72
2022/02/26 12:14:07;;;;;;;4.47;2.23;;;16.60;67.30;;;;;;5111135;28;20481;-74
2022/02/26 12:16:36;;;;;;;7.37;2.90;;;15.20;71.10;;;;;;5110033;28;20460;-74
2022/02/26 12:19:05;;;;;;;5.57;2.60;;;15.20;70.80;;;;;;5110872;28;20469;-72
2022/02/26 12:21:34;;;;;;;5.40;2.70;;;14.90;69.80;;;;;;5110835;28;20461;-72
2022/02/26 12:24:12;;;;;;;5.53;2.50;;;14.90;71.00;;;;;;5110740;28;20477;-72
2022/02/26 12:27:04;;;;;;;3.97;2.40;;;14.90;70.20;;;;;;5109354;28;20525;-71
2022/02/26 12:29:52;;;;;;;4.93;2.40;;;13.90;70.20;;;;;;5100847;28;20464;-73
2022/02/26 12:32:20;;;;;;;3.93;2.57;;;12.90;71.20;;;;;;5110191;28;20544;-73
2022/02/26 12:35:01;;;;;;;5.25;2.88;;;12.20;74.30;;;;;;5109514;28;20476;-72
2022/02/26 12:37:31;;;;;;;6.40;2.80;;;12.90;73.40;;;;;;5109305;28;20688;-73
2022/02/26 12:40:00;;;;;;;3.20;2.15;;;12.80;73.00;;;;;;5110857;28;20225;-72
2022/02/26 12:42:31;;;;;;;6.75;2.85;;;12.70;73.20;;;;;;5110512;28;20207;-71
2022/02/26 12:45:00;;;;;;;5.55;2.85;;;11.90;74.50;;;;;;5109450;28;20222;-71
2022/02/26 12:47:29;;;;;;;5.25;2.70;;;11.30;77.30;;;;;;5109482;28;20199;-72
2022/02/26 12:49:56;;;;;;;5.80;2.60;;;11.00;77.20;;;;;;5110568;28;20202;-71
2022/02/26 12:52:23;;;;;;;4.88;2.20;;;10.80;77.50;;;;;;5110216;28;20585;-71
2022/02/26 12:54:50;;;;;;;3.22;1.95;;;10.90;78.50;;;;;;5109886;28;20227;-73
2022/02/26 12:57:18;;;;;;;8.23;2.50;;;11.50;74.50;;;;;;5108968;28;20199;-72
2022/02/26 12:59:46;;;;;;;3.83;2.33;;;12.00;74.20;;;;;;5109771;28;20229;-72